Pingtan, China
Current Conditions -  °F | °C
As of 3:00 PM on Saturday 29 Nov 2014 (Local Time) from ZSFZ Reporting Station
Overcast Overcast  
Wind Chill: 68°   Ceiling: 1200
Heat Index: 68°   Visibility: 5mi
Dew Point: 63°   Wind: 7mph
Humidity: 83%   Direction: 10°N
Pressure: 29.94"   Gusts: NA
Location:  25.52°N, 119.78°E
Report Text: ZSFZ 290700Z 01003MPS 8000 OVC012 20/17 Q1014 NOSIG
Loading
Personal Weather Stations






























Interactive Weather Map New forecast layout! Learn more

10-Day Weather Forecast

Advertisements
Track Severe Weather on mobile